createdAt,value
2018-02-23T00:00:27.799Z,0
2018-02-23T00:01:08.338Z,0
2018-02-23T00:01:48.959Z,0
2018-02-23T00:02:29.524Z,0
2018-02-23T00:03:10.092Z,0
2018-02-23T00:03:50.676Z,0
2018-02-23T00:04:31.258Z,0
2018-02-23T00:05:11.848Z,0
2018-02-23T00:05:52.423Z,0
2018-02-23T00:06:33.224Z,0
2018-02-23T00:07:15.092Z,0
2018-02-23T00:07:55.476Z,0
2018-02-23T00:08:36.554Z,0
2018-02-23T00:09:17.862Z,0
2018-02-23T00:10:10.982Z,0
2018-02-23T00:10:51.242Z,0
2018-02-23T00:11:31.803Z,0
2018-02-23T00:12:12.395Z,0
2018-02-23T00:12:52.943Z,0
2018-02-23T00:13:33.540Z,0
2018-02-23T00:14:14.138Z,0
2018-02-23T00:14:54.713Z,0
2018-02-23T00:15:35.286Z,0
2018-02-23T00:16:15.877Z,0
2018-02-23T00:16:56.418Z,0
2018-02-23T00:17:36.966Z,0
2018-02-23T00:18:17.527Z,0
2018-02-23T00:18:58.118Z,0
2018-02-23T00:19:38.677Z,0
2018-02-23T00:20:19.279Z,0
2018-02-23T00:20:59.940Z,0
2018-02-23T00:21:40.586Z,0
2018-02-23T00:22:21.163Z,0
2018-02-23T00:23:01.705Z,0
2018-02-23T00:23:42.249Z,0
2018-02-23T00:24:22.796Z,0
2018-02-23T00:25:03.344Z,0
2018-02-23T00:25:43.898Z,0
2018-02-23T00:26:24.454Z,0
2018-02-23T00:27:05.017Z,0
2018-02-23T00:27:45.618Z,0
2018-02-23T00:28:26.191Z,0
2018-02-23T00:29:06.789Z,0
2018-02-23T00:29:47.385Z,0
2018-02-23T00:30:27.982Z,0
2018-02-23T00:31:08.582Z,0
2018-02-23T00:31:49.150Z,0
2018-02-23T00:32:29.722Z,0
2018-02-23T00:33:10.273Z,0
2018-02-23T00:33:50.856Z,0
2018-02-23T00:34:31.374Z,0
2018-02-23T00:35:11.921Z,0
2018-02-23T00:35:52.464Z,0
2018-02-23T00:36:33.019Z,0
2018-02-23T00:37:13.565Z,0
2018-02-23T00:37:54.149Z,0
2018-02-23T00:38:34.802Z,0
2018-02-23T00:39:15.337Z,0
2018-02-23T00:39:55.911Z,0
2018-02-23T00:40:36.489Z,0
2018-02-23T00:41:17.067Z,0
2018-02-23T00:41:57.593Z,0
2018-02-23T00:42:38.149Z,0
2018-02-23T00:43:18.759Z,0
2018-02-23T00:43:59.313Z,0
2018-02-23T00:44:39.890Z,0
2018-02-23T00:45:20.493Z,0
2018-02-23T00:46:01.070Z,0
2018-02-23T00:46:41.619Z,0
2018-02-23T00:47:22.165Z,0
2018-02-23T00:48:02.750Z,0
2018-02-23T00:48:43.277Z,0
2018-02-23T00:49:23.854Z,0
2018-02-23T00:50:04.390Z,0
2018-02-23T00:50:44.944Z,0
2018-02-23T00:51:25.492Z,0
2018-02-23T00:52:06.080Z,0
2018-02-23T00:52:46.592Z,0
2018-02-23T00:53:27.174Z,0
2018-02-23T00:54:07.732Z,0
2018-02-23T00:54:48.290Z,0
2018-02-23T00:55:28.859Z,0
2018-02-23T00:56:09.397Z,0
2018-02-23T00:56:49.958Z,0
2018-02-23T00:57:30.549Z,0
2018-02-23T00:58:11.088Z,0
2018-02-23T00:58:51.654Z,0
2018-02-23T00:59:32.197Z,0
2018-02-23T01:00:12.761Z,0
2018-02-23T01:00:53.308Z,0
2018-02-23T01:01:33.860Z,0
2018-02-23T01:02:14.409Z,0
2018-02-23T01:02:54.935Z,0
2018-02-23T01:03:35.571Z,0
2018-02-23T01:04:16.140Z,0
2018-02-23T01:04:56.776Z,0
2018-02-23T01:05:37.344Z,0
2018-02-23T01:06:17.880Z,0
2018-02-23T01:06:58.434Z,0
2018-02-23T01:07:39.137Z,0
2018-02-23T01:08:19.833Z,0
2018-02-23T01:09:00.560Z,0
2018-02-23T01:09:41.474Z,0
2018-02-23T01:10:21.927Z,0
2018-02-23T01:11:02.483Z,0
2018-02-23T01:11:43.121Z,0
2018-02-23T01:12:23.633Z,0
2018-02-23T01:13:04.169Z,0
2018-02-23T01:13:44.798Z,0
2018-02-23T01:14:25.432Z,0
2018-02-23T01:15:06.075Z,0
2018-02-23T01:15:46.899Z,0
2018-02-23T01:16:27.356Z,0
2018-02-23T01:17:07.956Z,0
2018-02-23T01:17:48.808Z,0
2018-02-23T01:18:29.382Z,0
2018-02-23T01:19:09.982Z,0
2018-02-23T01:19:50.772Z,0
2018-02-23T01:20:31.140Z,0
2018-02-23T01:21:11.670Z,0
2018-02-23T01:21:52.384Z,0
2018-02-23T01:22:33.157Z,0
2018-02-23T01:23:13.790Z,0
2018-02-23T01:23:54.504Z,0
2018-02-23T01:24:35.238Z,0
2018-02-23T01:25:15.736Z,0
2018-02-23T01:25:56.301Z,0
2018-02-23T01:26:36.836Z,0
2018-02-23T01:27:17.382Z,0
2018-02-23T01:27:57.932Z,0
2018-02-23T01:28:38.471Z,0
2018-02-23T01:29:19.004Z,0
2018-02-23T01:29:59.643Z,0
2018-02-23T01:30:40.207Z,0
2018-02-23T01:31:20.775Z,0
2018-02-23T01:32:01.344Z,0
2018-02-23T01:32:41.906Z,0
2018-02-23T01:33:22.492Z,0
2018-02-23T01:34:03.027Z,0
2018-02-23T01:34:43.588Z,0
2018-02-23T01:35:24.162Z,0
2018-02-23T01:36:04.832Z,0
2018-02-23T01:36:45.292Z,0
2018-02-23T01:37:25.855Z,0
2018-02-23T01:38:06.517Z,0
2018-02-23T01:38:47.087Z,0
2018-02-23T01:39:27.640Z,0
2018-02-23T01:40:08.207Z,0
2018-02-23T01:40:48.766Z,0
2018-02-23T01:41:29.319Z,0
2018-02-23T01:42:09.899Z,0
2018-02-23T01:42:50.444Z,0
2018-02-23T01:43:30.989Z,0
2018-02-23T01:44:11.576Z,0
2018-02-23T01:44:52.122Z,0
2018-02-23T01:45:32.670Z,0
2018-02-23T01:46:13.223Z,0
2018-02-23T01:46:53.851Z,0
2018-02-23T01:47:34.454Z,0
2018-02-23T01:48:15.006Z,0
2018-02-23T01:48:55.560Z,0
2018-02-23T01:49:36.112Z,0
2018-02-23T01:50:16.756Z,0
2018-02-23T01:50:57.257Z,0
2018-02-23T01:51:37.810Z,0
2018-02-23T01:52:18.360Z,0
2018-02-23T01:52:58.931Z,0
2018-02-23T01:53:39.497Z,0
2018-02-23T01:54:20.035Z,0
2018-02-23T01:55:00.588Z,0
2018-02-23T01:55:41.141Z,0
2018-02-23T01:56:21.686Z,0
2018-02-23T01:57:02.268Z,0
2018-02-23T01:57:42.813Z,0
2018-02-23T01:58:23.364Z,0
2018-02-23T01:59:03.955Z,0
2018-02-23T01:59:44.519Z,0
2018-02-23T02:00:25.097Z,0
2018-02-23T02:01:05.655Z,0
2018-02-23T02:01:46.206Z,0
2018-02-23T02:02:26.771Z,0
2018-02-23T02:03:07.322Z,0
2018-02-23T02:03:47.865Z,0
2018-02-23T02:04:28.442Z,0
2018-02-23T02:05:08.995Z,0
2018-02-23T02:05:49.540Z,0
2018-02-23T02:06:30.153Z,0
2018-02-23T02:07:10.736Z,0
2018-02-23T02:07:51.256Z,0
2018-02-23T02:08:31.808Z,0
2018-02-23T02:09:12.356Z,0
2018-02-23T02:09:52.918Z,0
2018-02-23T02:10:33.502Z,0
2018-02-23T02:11:14.064Z,0
2018-02-23T02:11:54.644Z,0
2018-02-23T02:12:35.278Z,0
2018-02-23T02:13:15.775Z,0
2018-02-23T02:13:56.329Z,0
2018-02-23T02:14:36.893Z,0
2018-02-23T02:15:17.577Z,0
2018-02-23T02:15:58.123Z,0
2018-02-23T02:16:38.708Z,0
2018-02-23T02:17:19.280Z,0
2018-02-23T02:17:59.824Z,0
2018-02-23T02:18:40.386Z,0
2018-02-23T02:19:20.958Z,0
2018-02-23T02:20:01.495Z,0
2018-02-23T02:20:42.078Z,0
2018-02-23T02:21:22.632Z,0
2018-02-23T02:22:03.191Z,0
2018-02-23T02:22:43.763Z,0
2018-02-23T02:23:24.327Z,0
2018-02-23T02:24:04.881Z,0
2018-02-23T02:24:45.473Z,0
2018-02-23T02:25:25.986Z,0
2018-02-23T02:26:06.532Z,0
2018-02-23T02:26:47.089Z,0
2018-02-23T02:27:27.637Z,0
2018-02-23T02:28:08.188Z,0
2018-02-23T02:28:48.799Z,0
2018-02-23T02:29:29.336Z,0
2018-02-23T02:30:09.896Z,0
2018-02-23T02:30:50.450Z,0
2018-02-23T02:31:31.008Z,0
2018-02-23T02:32:11.550Z,0
2018-02-23T02:32:52.099Z,0
2018-02-23T02:33:32.678Z,0
2018-02-23T02:34:13.243Z,0
2018-02-23T02:34:53.798Z,0
2018-02-23T02:35:34.379Z,0
2018-02-23T02:36:14.930Z,0
2018-02-23T02:36:55.479Z,0
2018-02-23T02:37:36.064Z,0
2018-02-23T02:38:16.624Z,0
2018-02-23T02:38:57.202Z,0
2018-02-23T02:39:37.752Z,0
2018-02-23T02:40:18.329Z,0
2018-02-23T02:40:58.876Z,0
2018-02-23T02:41:39.443Z,0
2018-02-23T02:42:19.968Z,0
2018-02-23T02:43:00.531Z,0
2018-02-23T02:43:41.099Z,0
2018-02-23T02:44:21.648Z,0
2018-02-23T02:45:02.202Z,0
2018-02-23T02:45:42.735Z,0
2018-02-23T02:46:23.290Z,0
2018-02-23T02:47:03.830Z,0
2018-02-23T02:47:44.422Z,0
2018-02-23T02:48:25.025Z,0
2018-02-23T02:49:05.539Z,0
2018-02-23T02:49:46.138Z,0
2018-02-23T02:50:26.685Z,0
2018-02-23T02:51:07.232Z,0
2018-02-23T02:51:47.784Z,0
2018-02-23T02:52:28.338Z,0
2018-02-23T02:53:08.901Z,0
2018-02-23T02:53:49.465Z,0
2018-02-23T02:54:30.003Z,0
2018-02-23T02:55:10.554Z,0
2018-02-23T02:55:51.104Z,0
2018-02-23T02:56:31.662Z,0
2018-02-23T02:57:12.294Z,0
2018-02-23T02:57:52.791Z,0
2018-02-23T02:58:33.341Z,0
2018-02-23T02:59:13.868Z,0
2018-02-23T02:59:54.404Z,0
2018-02-23T03:00:34.956Z,0
2018-02-23T03:01:15.505Z,0
2018-02-23T03:01:56.056Z,0
2018-02-23T03:02:36.608Z,0
2018-02-23T03:03:17.185Z,0
2018-02-23T03:03:57.727Z,0
2018-02-23T03:04:38.305Z,0
2018-02-23T03:05:18.917Z,0
2018-02-23T03:05:59.467Z,0
2018-02-23T03:06:40.047Z,0
2018-02-23T03:07:20.609Z,0
2018-02-23T03:08:01.194Z,0
2018-02-23T03:08:41.735Z,0
2018-02-23T03:09:22.391Z,0
2018-02-23T03:10:02.949Z,0
2018-02-23T03:10:43.494Z,0
2018-02-23T03:11:24.039Z,0
2018-02-23T03:12:04.599Z,0
2018-02-23T03:12:45.143Z,0
2018-02-23T03:13:25.713Z,0
2018-02-23T03:14:06.270Z,0
2018-02-23T03:14:46.826Z,0
2018-02-23T03:15:27.385Z,0
2018-02-23T03:16:07.942Z,0
2018-02-23T03:16:48.522Z,0
2018-02-23T03:17:29.048Z,0
2018-02-23T03:18:09.636Z,0
2018-02-23T03:18:50.224Z,0
2018-02-23T03:19:30.726Z,0
2018-02-23T03:20:11.288Z,0
2018-02-23T03:20:51.832Z,0
2018-02-23T03:21:32.393Z,0
2018-02-23T03:22:12.918Z,0
2018-02-23T03:22:53.462Z,0
2018-02-23T03:23:34.031Z,0
2018-02-23T03:24:14.581Z,0
2018-02-23T03:24:55.142Z,0
2018-02-23T03:25:35.690Z,0
2018-02-23T03:26:16.220Z,0
2018-02-23T03:26:56.798Z,0
2018-02-23T03:27:37.397Z,0
2018-02-23T03:28:17.967Z,0
2018-02-23T03:28:58.525Z,0
2018-02-23T03:29:39.092Z,0
2018-02-23T03:30:19.614Z,0
2018-02-23T03:31:00.168Z,0
2018-02-23T03:31:40.729Z,0
2018-02-23T03:32:21.313Z,0
2018-02-23T03:33:01.882Z,0
2018-02-23T03:33:42.431Z,0
2018-02-23T03:34:22.998Z,0
2018-02-23T03:35:03.553Z,0
2018-02-23T03:35:44.128Z,0
2018-02-23T03:36:24.690Z,0
2018-02-23T03:37:05.238Z,0
2018-02-23T03:37:45.793Z,0
2018-02-23T03:38:26.344Z,0
2018-02-23T03:39:06.910Z,0
2018-02-23T03:39:47.448Z,0
2018-02-23T03:40:28.007Z,0
2018-02-23T03:41:08.579Z,0
2018-02-23T03:41:49.134Z,0
2018-02-23T03:42:29.698Z,0
2018-02-23T03:43:10.244Z,0
2018-02-23T03:43:50.792Z,0
2018-02-23T03:44:31.362Z,0
2018-02-23T03:45:11.937Z,0
2018-02-23T03:45:52.508Z,0
2018-02-23T03:46:33.049Z,0
2018-02-23T03:47:13.622Z,0
2018-02-23T03:47:54.215Z,0
2018-02-23T03:48:34.760Z,0
2018-02-23T03:49:15.311Z,0
2018-02-23T03:49:55.871Z,0
2018-02-23T03:50:36.393Z,0
2018-02-23T03:51:16.994Z,0
2018-02-23T03:51:57.497Z,0
2018-02-23T03:52:38.054Z,0
2018-02-23T03:53:18.608Z,0
2018-02-23T03:53:59.152Z,0
2018-02-23T03:54:39.738Z,0
2018-02-23T03:55:20.300Z,0
2018-02-23T03:56:00.842Z,0
2018-02-23T03:56:41.492Z,0
2018-02-23T03:57:22.007Z,0
2018-02-23T03:58:02.578Z,0
2018-02-23T03:58:43.098Z,0
2018-02-23T03:59:23.640Z,0
2018-02-23T04:00:04.193Z,0
2018-02-23T04:00:44.732Z,0
2018-02-23T04:01:25.284Z,0
2018-02-23T04:02:05.844Z,0
2018-02-23T04:02:46.389Z,0
2018-02-23T04:03:26.936Z,0
2018-02-23T04:04:07.496Z,0
2018-02-23T04:04:48.051Z,0
2018-02-23T04:05:28.603Z,0
2018-02-23T04:06:09.158Z,0
2018-02-23T04:06:49.697Z,0
2018-02-23T04:07:30.264Z,0
2018-02-23T04:08:10.821Z,0
2018-02-23T04:08:51.413Z,0
2018-02-23T04:09:31.976Z,0
2018-02-23T04:10:12.566Z,0
2018-02-23T04:10:53.146Z,0
2018-02-23T04:11:33.688Z,0
2018-02-23T04:12:14.238Z,0
2018-02-23T04:12:54.789Z,0
2018-02-23T04:13:35.342Z,0
2018-02-23T04:14:15.963Z,0
2018-02-23T04:14:56.511Z,0
2018-02-23T04:15:37.156Z,0
2018-02-23T04:16:17.736Z,0
2018-02-23T04:16:58.266Z,0
2018-02-23T04:17:38.810Z,0
2018-02-23T04:18:19.353Z,0
2018-02-23T04:18:59.892Z,0
2018-02-23T04:19:40.459Z,0
2018-02-23T04:20:21.036Z,0
2018-02-23T04:21:01.566Z,0
2018-02-23T04:21:42.104Z,0
2018-02-23T04:22:22.663Z,0
2018-02-23T04:23:03.236Z,0
2018-02-23T04:23:43.768Z,0
2018-02-23T04:24:24.328Z,0
2018-02-23T04:25:04.885Z,0
2018-02-23T04:25:45.414Z,0
2018-02-23T04:26:25.955Z,0
2018-02-23T04:27:06.507Z,0
2018-02-23T04:27:47.072Z,0
2018-02-23T04:28:27.633Z,0
2018-02-23T04:29:08.214Z,0
2018-02-23T04:29:48.796Z,0
2018-02-23T04:30:29.339Z,0
2018-02-23T04:31:09.920Z,0
2018-02-23T04:31:50.517Z,0
2018-02-23T04:32:31.098Z,0
2018-02-23T04:33:11.647Z,0
2018-02-23T04:33:52.196Z,0
2018-02-23T04:34:32.760Z,0
2018-02-23T04:35:13.312Z,0
2018-02-23T04:35:53.866Z,0
2018-02-23T04:36:34.440Z,0
2018-02-23T04:37:15.014Z,0
2018-02-23T04:37:55.611Z,0
2018-02-23T04:38:36.161Z,0
2018-02-23T04:39:16.711Z,0
2018-02-23T04:39:57.275Z,0
2018-02-23T04:40:37.816Z,0
2018-02-23T04:41:18.362Z,0
2018-02-23T04:41:58.916Z,0
2018-02-23T04:42:39.468Z,0
2018-02-23T04:43:20.020Z,0
2018-02-23T04:44:00.572Z,0
2018-02-23T04:44:41.114Z,0
2018-02-23T04:45:21.681Z,0
2018-02-23T04:46:02.236Z,0
2018-02-23T04:46:42.779Z,0
2018-02-23T04:47:23.335Z,0
2018-02-23T04:48:03.898Z,0
2018-02-23T04:48:44.437Z,0
2018-02-23T04:49:24.980Z,0
2018-02-23T04:50:05.530Z,0
2018-02-23T04:50:46.078Z,0
2018-02-23T04:51:26.624Z,0
2018-02-23T04:52:07.269Z,0
2018-02-23T04:52:47.803Z,0
2018-02-23T04:53:28.365Z,0
2018-02-23T04:54:08.912Z,0
2018-02-23T04:54:49.460Z,0
2018-02-23T04:55:30.016Z,0
2018-02-23T04:56:10.595Z,0
2018-02-23T04:56:51.145Z,0
2018-02-23T04:57:31.691Z,0
2018-02-23T04:58:12.241Z,0
2018-02-23T04:58:52.796Z,0
2018-02-23T04:59:33.335Z,0
2018-02-23T05:00:13.901Z,0
2018-02-23T05:00:54.448Z,0
2018-02-23T05:01:34.999Z,0
2018-02-23T05:02:15.555Z,0
2018-02-23T05:02:56.099Z,0
2018-02-23T05:03:36.656Z,0
2018-02-23T05:04:17.269Z,0
2018-02-23T05:04:57.791Z,0
2018-02-23T05:05:38.361Z,0
2018-02-23T05:06:18.942Z,0
2018-02-23T05:06:59.479Z,0
2018-02-23T05:07:40.044Z,0
2018-02-23T05:08:20.599Z,0
2018-02-23T05:09:01.147Z,0
2018-02-23T05:09:41.702Z,0
2018-02-23T05:10:22.293Z,0
2018-02-23T05:11:02.813Z,0
2018-02-23T05:11:43.380Z,0
2018-02-23T05:12:23.937Z,0
2018-02-23T05:13:04.488Z,0
2018-02-23T05:13:45.037Z,0
2018-02-23T05:14:25.587Z,0
2018-02-23T05:15:06.142Z,0
2018-02-23T05:15:46.714Z,0
2018-02-23T05:16:27.275Z,0
2018-02-23T05:17:07.878Z,0
2018-02-23T05:17:48.414Z,0
2018-02-23T05:18:28.958Z,0
2018-02-23T05:19:09.572Z,0
2018-02-23T05:19:50.123Z,0
2018-02-23T05:20:30.689Z,0
2018-02-23T05:21:11.246Z,0
2018-02-23T05:21:51.821Z,0
2018-02-23T05:22:32.398Z,0
2018-02-23T05:23:12.919Z,0
2018-02-23T05:23:53.466Z,0
2018-02-23T05:24:34.020Z,0
2018-02-23T05:25:14.589Z,0
2018-02-23T05:25:55.216Z,0
2018-02-23T05:26:35.750Z,0
2018-02-23T05:27:16.262Z,0
2018-02-23T05:27:56.913Z,0
2018-02-23T05:28:37.479Z,0
2018-02-23T05:29:18.041Z,0
2018-02-23T05:29:58.763Z,0
2018-02-23T05:30:39.321Z,0
2018-02-23T05:31:19.877Z,0
2018-02-23T05:32:00.441Z,0
2018-02-23T05:32:41.043Z,4
2018-02-23T05:33:21.600Z,4
2018-02-23T05:34:02.152Z,4
2018-02-23T05:34:42.758Z,0
2018-02-23T05:35:23.296Z,0
2018-02-23T05:36:03.834Z,4
2018-02-23T05:36:44.419Z,4
2018-02-23T05:37:24.940Z,4
2018-02-23T05:38:05.478Z,4
2018-02-23T05:38:46.044Z,4
2018-02-23T05:39:26.600Z,8
2018-02-23T05:40:07.173Z,4
2018-02-23T05:40:47.792Z,4
2018-02-23T05:41:28.402Z,8
2018-02-23T05:42:08.893Z,8
2018-02-23T05:42:49.434Z,8
2018-02-23T05:43:29.969Z,8
2018-02-23T05:44:10.514Z,12
2018-02-23T05:44:51.072Z,12
2018-02-23T05:45:31.627Z,12
2018-02-23T05:46:12.245Z,12
2018-02-23T05:46:52.748Z,12
2018-02-23T05:47:33.318Z,16
2018-02-23T05:48:13.867Z,16
2018-02-23T05:48:54.417Z,24
2018-02-23T05:49:34.967Z,24
2018-02-23T05:50:15.597Z,28
2018-02-23T05:50:56.147Z,28
2018-02-23T05:51:36.695Z,32
2018-02-23T05:52:17.238Z,36
2018-02-23T05:52:57.801Z,40
2018-02-23T05:53:38.380Z,44
2018-02-23T05:54:18.926Z,48
2018-02-23T05:54:59.580Z,52
2018-02-23T05:55:40.134Z,56
2018-02-23T05:56:20.701Z,60
2018-02-23T05:57:01.234Z,68
2018-02-23T05:57:41.781Z,76
2018-02-23T05:58:22.332Z,80
2018-02-23T05:59:02.885Z,88
2018-02-23T05:59:43.429Z,96
2018-02-23T06:00:23.987Z,100
2018-02-23T06:01:04.540Z,108
2018-02-23T06:01:45.082Z,116
2018-02-23T06:02:25.634Z,124
2018-02-23T06:03:06.184Z,136
2018-02-23T06:03:46.748Z,144
2018-02-23T06:04:27.331Z,152
2018-02-23T06:05:07.888Z,160
2018-02-23T06:05:48.449Z,176
2018-02-23T06:06:29.003Z,188
2018-02-23T06:07:09.560Z,200
2018-02-23T06:07:50.116Z,212
2018-02-23T06:08:30.696Z,224
2018-02-23T06:09:11.225Z,236
2018-02-23T06:09:51.784Z,252
2018-02-23T06:10:32.335Z,268
2018-02-23T06:11:12.875Z,280
2018-02-23T06:11:53.427Z,296
2018-02-23T06:12:34.001Z,312
2018-02-23T06:13:14.543Z,328
2018-02-23T06:13:55.089Z,344
2018-02-23T06:14:35.641Z,364
2018-02-23T06:15:16.198Z,384
2018-02-23T06:15:56.795Z,400
2018-02-23T06:16:37.302Z,416
2018-02-23T06:17:17.867Z,440
2018-02-23T06:17:58.402Z,460
2018-02-23T06:18:38.956Z,484
2018-02-23T06:19:19.525Z,504
2018-02-23T06:20:00.068Z,532
2018-02-23T06:20:40.896Z,556
2018-02-23T06:21:21.597Z,584
2018-02-23T06:22:02.136Z,604
2018-02-23T06:22:42.699Z,632
2018-02-23T06:23:23.224Z,656
2018-02-23T06:24:03.922Z,684
2018-02-23T06:24:44.628Z,712
2018-02-23T06:25:25.190Z,744
2018-02-23T06:26:05.773Z,772
2018-02-23T06:26:46.342Z,804
2018-02-23T06:27:26.895Z,836
2018-02-23T06:28:07.469Z,872
2018-02-23T06:28:48.038Z,904
2018-02-23T06:29:28.576Z,940
2018-02-23T06:30:09.135Z,980
2018-02-23T06:30:49.688Z,1000
2018-02-23T06:31:30.262Z,1028
2018-02-23T06:32:10.823Z,1076
2018-02-23T06:32:51.454Z,1112
2018-02-23T06:33:31.999Z,1152
2018-02-23T06:34:12.553Z,1180
2018-02-23T06:34:53.091Z,1208
2018-02-23T06:35:33.645Z,1236
2018-02-23T06:36:14.214Z,1288
2018-02-23T06:36:54.760Z,1332
2018-02-23T06:37:35.340Z,1364
2018-02-23T06:38:15.943Z,1408
2018-02-23T06:38:56.515Z,1448
2018-02-23T06:39:37.337Z,1492
2018-02-23T06:40:18.042Z,1524
2018-02-23T06:40:58.569Z,1548
2018-02-23T06:41:39.139Z,1564
2018-02-23T06:42:19.703Z,1580
2018-02-23T06:43:00.245Z,1612
2018-02-23T06:43:40.803Z,1652
2018-02-23T06:44:21.353Z,1704
2018-02-23T06:45:01.901Z,1748
2018-02-23T06:45:42.456Z,1812
2018-02-23T06:46:23.026Z,1856
2018-02-23T06:47:03.578Z,1888
2018-02-23T06:47:44.133Z,1892
2018-02-23T06:48:24.667Z,1912
2018-02-23T06:49:05.235Z,1972
2018-02-23T06:49:45.809Z,2012
2018-02-23T06:50:26.356Z,2016
2018-02-23T06:51:06.921Z,2036
2018-02-23T06:51:47.487Z,2100
2018-02-23T06:52:28.042Z,2172
2018-02-23T06:53:08.589Z,2212
2018-02-23T06:53:49.233Z,2212
2018-02-23T06:54:29.733Z,2240
2018-02-23T06:55:10.307Z,2284
2018-02-23T06:55:50.875Z,2340
2018-02-23T06:56:31.452Z,2392
2018-02-23T06:57:12.120Z,2468
2018-02-23T06:57:52.625Z,2496
2018-02-23T06:58:33.186Z,2516
2018-02-23T06:59:13.774Z,2548
2018-02-23T06:59:54.313Z,2628
2018-02-23T07:00:34.886Z,2684
2018-02-23T07:01:15.417Z,2724
2018-02-23T07:01:56.006Z,2768
2018-02-23T07:02:36.581Z,2856
2018-02-23T07:03:17.133Z,2920
2018-02-23T07:03:57.700Z,2900
2018-02-23T07:04:38.271Z,2892
2018-02-23T07:05:18.821Z,2992
2018-02-23T07:05:59.397Z,3008
2018-02-23T07:06:39.976Z,3072
2018-02-23T07:07:20.549Z,3096
2018-02-23T07:08:01.105Z,3152
2018-02-23T07:08:41.661Z,3232
2018-02-23T07:09:22.293Z,3276
2018-02-23T07:10:02.908Z,3288
2018-02-23T07:10:43.466Z,3324
2018-02-23T07:11:24.002Z,3360
2018-02-23T07:12:04.845Z,3436
2018-02-23T07:12:45.154Z,3492
2018-02-23T07:13:25.705Z,3480
2018-02-23T07:14:06.286Z,3544
2018-02-23T07:14:46.852Z,3616
2018-02-23T07:15:27.435Z,3712
2018-02-23T07:16:08.266Z,3732
2018-02-23T07:16:50.588Z,3744
2018-02-23T07:17:30.195Z,3760
2018-02-23T07:18:12.012Z,3720
2018-02-23T07:18:52.065Z,3728
2018-02-23T07:19:32.614Z,3776
2018-02-23T07:20:13.175Z,3780
2018-02-23T07:20:53.747Z,3884
2018-02-23T07:21:34.305Z,3988
2018-02-23T07:22:14.843Z,4104
2018-02-23T07:22:55.389Z,4108
2018-02-23T07:23:35.966Z,4052
2018-02-23T07:24:16.519Z,4100
2018-02-23T07:24:57.058Z,4132
2018-02-23T07:25:37.631Z,4208
2018-02-23T07:26:18.181Z,4292
2018-02-23T07:26:58.731Z,4296
2018-02-23T07:27:39.290Z,4300
2018-02-23T07:28:19.853Z,4340
2018-02-23T07:29:00.386Z,4300
2018-02-23T07:29:40.943Z,4364
2018-02-23T07:30:21.507Z,4468
2018-02-23T07:31:02.060Z,4528
2018-02-23T07:31:42.623Z,4520
2018-02-23T07:32:23.176Z,4620
2018-02-23T07:33:03.712Z,4720
2018-02-23T07:33:44.269Z,4800
2018-02-23T07:34:24.820Z,4832
2018-02-23T07:35:05.353Z,4764
2018-02-23T07:35:45.915Z,4772
2018-02-23T07:36:26.513Z,4824
2018-02-23T07:37:07.069Z,4832
2018-02-23T07:37:47.634Z,4852
2018-02-23T07:38:28.207Z,4876
2018-02-23T07:39:08.761Z,4924
2018-02-23T07:39:49.313Z,4984
2018-02-23T07:40:29.894Z,5168
2018-02-23T07:41:10.449Z,5096
2018-02-23T07:41:51.005Z,5052
2018-02-23T07:42:31.549Z,5008
2018-02-23T07:43:12.217Z,5116
2018-02-23T07:43:52.787Z,5080
2018-02-23T07:44:34.297Z,5112
2018-02-23T07:45:15.699Z,5116
2018-02-23T07:45:56.233Z,5160
2018-02-23T07:46:36.783Z,5204
2018-02-23T07:47:17.427Z,5308
2018-02-23T07:47:57.972Z,5296
2018-02-23T07:48:38.528Z,5448
2018-02-23T07:49:19.073Z,5424
2018-02-23T07:49:59.642Z,5488
2018-02-23T07:50:40.188Z,5420
2018-02-23T07:51:21.479Z,5456
2018-02-23T07:52:02.295Z,5480
2018-02-23T07:52:42.967Z,5556
2018-02-23T07:53:23.519Z,5568
2018-02-23T07:54:04.071Z,5600
2018-02-23T07:54:44.621Z,5656
2018-02-23T07:55:25.175Z,6096
2018-02-23T07:56:05.768Z,6168
2018-02-23T07:56:46.383Z,6136
2018-02-23T07:57:27.098Z,6260
2018-02-23T07:58:07.652Z,6444
2018-02-23T07:58:49.055Z,6580
2018-02-23T07:59:29.612Z,6468
2018-02-23T08:00:10.876Z,6144
2018-02-23T08:00:51.423Z,6184
2018-02-23T08:01:31.963Z,6300
2018-02-23T08:02:12.520Z,6512
2018-02-23T08:02:53.062Z,6648
2018-02-23T08:03:33.975Z,7216
2018-02-23T08:04:14.529Z,7864
2018-02-23T08:04:55.123Z,9476
2018-02-23T08:05:35.675Z,10832
2018-02-23T08:06:16.361Z,13060
2018-02-23T08:06:57.679Z,15144
2018-02-23T08:07:38.134Z,17536
2018-02-23T08:08:18.698Z,19328
2018-02-23T08:08:59.267Z,21632
2018-02-23T08:09:39.810Z,25024
2018-02-23T08:10:20.539Z,28512
2018-02-23T08:11:01.123Z,31936
2018-02-23T08:11:41.674Z,34688
2018-02-23T08:12:22.536Z,29440
2018-02-23T08:13:03.076Z,45024
2018-02-23T08:13:43.696Z,49152
2018-02-23T08:14:24.231Z,49312
2018-02-23T08:15:04.796Z,48352
2018-02-23T08:15:45.583Z,46208
2018-02-23T08:16:26.096Z,45824
2018-02-23T08:17:06.641Z,44160
2018-02-23T08:17:47.214Z,43840
2018-02-23T08:18:27.775Z,44352
2018-02-23T08:19:08.360Z,45184
2018-02-23T08:19:48.902Z,44800
2018-02-23T08:20:29.477Z,44160
2018-02-23T08:21:10.032Z,43296
2018-02-23T08:21:50.600Z,43552
2018-02-23T08:22:31.171Z,43008
2018-02-23T08:23:11.838Z,44160
2018-02-23T08:23:53.282Z,43776
2018-02-23T08:24:33.886Z,43936
2018-02-23T08:25:14.458Z,42688
2018-02-23T08:25:55.015Z,37184
2018-02-23T08:26:35.581Z,43072
2018-02-23T08:27:16.148Z,45632
2018-02-23T08:27:56.740Z,47200
2018-02-23T08:28:37.267Z,46656
2018-02-23T08:29:17.846Z,42880
2018-02-23T08:29:58.393Z,45536
2018-02-23T08:30:38.961Z,47424
2018-02-23T08:31:19.533Z,47872
2018-02-23T08:32:00.082Z,47456
2018-02-23T08:32:40.630Z,46464
2018-02-23T08:33:21.174Z,46944
2018-02-23T08:34:01.747Z,46848
2018-02-23T08:34:42.359Z,45056
2018-02-23T08:35:22.937Z,46048
2018-02-23T08:36:03.497Z,46528
2018-02-23T08:36:44.099Z,47136
2018-02-23T08:37:24.693Z,44096
2018-02-23T08:38:05.240Z,41792
2018-02-23T08:38:45.855Z,42720
2018-02-23T08:39:26.405Z,44448
2018-02-23T08:40:07.101Z,42912
2018-02-23T08:40:47.678Z,43264
2018-02-23T08:41:28.325Z,43168
2018-02-23T08:42:08.979Z,44064
2018-02-23T08:42:49.585Z,44448
2018-02-23T08:43:31.004Z,44288
2018-02-23T08:44:11.058Z,42944
2018-02-23T08:44:51.649Z,43264
2018-02-23T08:45:32.348Z,44096
2018-02-23T08:46:12.921Z,44928
2018-02-23T08:46:53.484Z,44064
2018-02-23T08:47:34.084Z,43904
2018-02-23T08:48:14.867Z,42720
2018-02-23T08:48:55.650Z,42496
2018-02-23T08:49:37.037Z,39168
2018-02-23T08:50:17.642Z,35136
2018-02-23T08:50:58.312Z,38400
2018-02-23T08:51:38.905Z,38304
2018-02-23T08:52:19.462Z,39296
2018-02-23T08:53:00.097Z,36736
2018-02-23T08:53:40.665Z,36288
2018-02-23T08:54:21.229Z,36288
2018-02-23T08:55:02.168Z,36320
2018-02-23T08:55:42.790Z,33920
2018-02-23T08:56:23.513Z,32480
2018-02-23T08:57:04.346Z,31616
2018-02-23T08:57:45.193Z,31424
2018-02-23T08:58:25.935Z,30592
2018-02-23T08:59:06.770Z,29792
2018-02-23T08:59:47.369Z,29344
2018-02-23T09:00:27.944Z,29280
2018-02-23T09:01:08.936Z,27808
2018-02-23T09:01:49.773Z,27456
2018-02-23T09:02:31.876Z,27008
2018-02-23T09:03:12.970Z,26816
2018-02-23T09:03:53.639Z,24064
2018-02-23T09:04:34.196Z,21984
2018-02-23T09:05:14.767Z,19968
2018-02-23T09:05:55.348Z,18400
2018-02-23T09:06:35.914Z,17440
2018-02-23T09:07:16.474Z,16416
2018-02-23T09:07:57.040Z,17024
2018-02-23T09:08:37.600Z,16224
2018-02-23T09:09:18.174Z,15360
2018-02-23T09:09:58.790Z,13496
2018-02-23T09:10:39.355Z,6836
2018-02-23T09:11:19.920Z,11128
2018-02-23T09:12:00.480Z,13412
2018-02-23T09:12:41.051Z,13856
2018-02-23T09:13:21.645Z,13140
2018-02-23T09:14:02.225Z,12144
2018-02-23T09:14:42.770Z,12796
2018-02-23T09:15:23.747Z,12460
2018-02-23T09:16:04.707Z,10216
2018-02-23T09:16:45.293Z,11704
2018-02-23T09:17:25.851Z,11128
2018-02-23T09:18:06.589Z,8668
2018-02-23T09:18:47.056Z,8304
2018-02-23T09:19:27.537Z,10784
2018-02-23T09:20:08.105Z,11192
2018-02-23T09:20:48.662Z,10736
2018-02-23T09:21:29.242Z,10656
2018-02-23T09:22:09.784Z,11112
2018-02-23T09:22:50.334Z,10532
2018-02-23T09:23:30.923Z,10696
2018-02-23T09:24:11.999Z,11040
2018-02-23T09:24:53.668Z,10968
2018-02-23T09:25:34.522Z,10420
2018-02-23T09:26:15.073Z,7788
2018-02-23T09:26:55.638Z,7920
2018-02-23T09:27:36.200Z,10632
2018-02-23T09:28:17.049Z,10412
2018-02-23T09:28:57.618Z,9004
2018-02-23T09:29:38.178Z,8828
2018-02-23T09:30:18.763Z,9236
2018-02-23T09:30:59.309Z,8888
2018-02-23T09:31:39.878Z,8440
2018-02-23T09:32:20.446Z,8292
2018-02-23T09:33:00.992Z,8548
2018-02-23T09:33:41.558Z,8488
2018-02-23T09:34:22.115Z,8440